Big Springs, NE (69122)

6:46 PM MST on February 06, 2016 (GMT -0700)
MesoWest | | Change Station
CLOSE
Current Station
Personal Weather Station
Location: Big Springs, NE
Elevation: 3356 ft
Nearby Weather Stations
Active Advisory: Special Statement

Elev 3356 ft 41.07 °N, 102.02 °W | Updated 1 hour ago

Clear
Clear
-0.0 °F
Feels Like -16 °F
N
10.0
Wind Variable Wind from WNW
Gusts 16.0 mph

Today
High -- | Low -- °F
--% Chance of Precip.
Yesterday
High -- | Low -- °F
Precip. -- in
Pressure 30.00 in
Visibility 10.0 miles
Clouds Clear
Windchill -16 °F
Dew Point Not available.
Humidity Not available.
Rainfall in
Snow Depth Not available.
6:54 AM 5:11 PM
Waning Crescent, 3% visible
METAR KOGA 070135Z AUTO 26005KT 10SM CLR M02/M06 A3000 RMK AO2 T10201057
Pressure 30.00 in
Visibility 10.0 miles
Clouds Clear
Windchill -16 °F
Dew Point Not available.
Humidity Not available.
Rainfall in
Snow Depth Not available.
6:54 AM 5:11 PM
Waning Crescent, 3% visible
METAR KOGA 070135Z AUTO 26005KT 10SM CLR M02/M06 A3000 RMK AO2 T10201057

10-Day Weather Forecast

Almanac

Astronomy

Feb. 06, 2016 Rise Set
Actual Time
Civil Twilight
Nautical Twilight
Astronomical Twilight
Moon
Length of Visible Light
Length of Day
Tomorrow will be .
, % of the Moon is Illuminated

Today's Extremes

State Highs State Lows

Community

WunderPhotos

Upload Photos

1,891,123 photos uploaded!

WunderBlog® & News

Nearby

Air Quality

  Air Quality AQ Index Pollutant
Not available.

Snow Depth

Station Depth Elevation

Earthquake Activity

City Distance Mag. Time & Date
Minimum magnitude displayed is 2.5.

Coastal Water Temperatures

Place Temperature

Stations

Nearby Weather Stations

Station Location Temp. Windchill Dew Point Humidity Wind Precip. Elev Updated Type
                   

Watches & Warnings

Special Statement
Issued: 5:50 PM MST Feb. 6, 2016 – National Weather Service

A cold front moving through the region will bring strong
northwest winds on Sunday to counties in the southeast
Panhandle... central sandhills... into southwest and central
Nebraska. By mid morning Sunday... northwest winds of 25 to 35 mph
with gusts to 50 mph possible will occur across the area and
persist through the afternoon and early evening hours. The strong
winds will blow any loose snow to reduce visibility in open areas.
Strong cross winds will cause difficult driving... especially for
high profile vehicles.


Kar


650 PM CST Sat Feb 6 2016 /550 PM MST Sat Feb 6 2016/

A cold front moving through the region will bring strong
northwest winds on Sunday to counties in the southeast
Panhandle... central sandhills... into southwest and central
Nebraska. By mid morning Sunday... northwest winds of 25 to 35 mph
with gusts to 50 mph possible will occur across the area and
persist through the afternoon and early evening hours. The strong
winds will blow any loose snow to reduce visibility in open areas.
Strong cross winds will cause difficult driving... especially for
high profile vehicles.


Kar